sensor_id;sensor_type;location;lat;lon;timestamp;P1;durP1;ratioP1;P2;durP2;ratioP2
72205;SDS011;60111;48.286;7.812;2022-08-01T00:00:06;1.80;;;1.65;;
72205;SDS011;60111;48.286;7.812;2022-08-01T00:02:40;2.92;;;1.87;;
72205;SDS011;60111;48.286;7.812;2022-08-01T00:05:13;2.47;;;1.80;;
72205;SDS011;60111;48.286;7.812;2022-08-01T00:07:45;2.80;;;2.00;;
72205;SDS011;60111;48.286;7.812;2022-08-01T00:10:18;3.83;;;2.20;;
72205;SDS011;60111;48.286;7.812;2022-08-01T00:12:51;2.20;;;2.00;;
72205;SDS011;60111;48.286;7.812;2022-08-01T00:15:24;2.58;;;2.02;;
72205;SDS011;60111;48.286;7.812;2022-08-01T00:17:57;1.90;;;1.80;;
72205;SDS011;60111;48.286;7.812;2022-08-01T00:20:29;4.37;;;2.20;;
72205;SDS011;60111;48.286;7.812;2022-08-01T00:23:02;1.97;;;1.77;;
72205;SDS011;60111;48.286;7.812;2022-08-01T00:25:35;4.50;;;2.13;;
72205;SDS011;60111;48.286;7.812;2022-08-01T00:28:08;2.45;;;2.20;;
72205;SDS011;60111;48.286;7.812;2022-08-01T00:30:41;3.47;;;1.80;;
72205;SDS011;60111;48.286;7.812;2022-08-01T00:33:13;2.70;;;2.00;;
72205;SDS011;60111;48.286;7.812;2022-08-01T00:35:46;2.83;;;2.10;;
72205;SDS011;60111;48.286;7.812;2022-08-01T00:38:18;2.15;;;1.90;;
72205;SDS011;60111;48.286;7.812;2022-08-01T00:40:51;8.05;;;2.35;;
72205;SDS011;60111;48.286;7.812;2022-08-01T00:43:24;2.80;;;1.87;;
72205;SDS011;60111;48.286;7.812;2022-08-01T00:45:56;2.97;;;2.20;;
72205;SDS011;60111;48.286;7.812;2022-08-01T00:48:29;3.13;;;2.23;;
72205;SDS011;60111;48.286;7.812;2022-08-01T00:51:03;2.42;;;2.20;;
72205;SDS011;60111;48.286;7.812;2022-08-01T00:56:08;3.62;;;2.33;;
72205;SDS011;60111;48.286;7.812;2022-08-01T00:58:41;2.53;;;2.27;;
72205;SDS011;60111;48.286;7.812;2022-08-01T01:01:14;2.70;;;2.42;;
72205;SDS011;60111;48.286;7.812;2022-08-01T01:03:52;4.70;;;2.70;;
72205;SDS011;60111;48.286;7.812;2022-08-01T01:11:57;3.27;;;2.40;;
72205;SDS011;60111;48.286;7.812;2022-08-01T01:14:37;4.45;;;2.37;;
72205;SDS011;60111;48.286;7.812;2022-08-01T01:17:21;2.25;;;2.00;;
72205;SDS011;60111;48.286;7.812;2022-08-01T01:19:56;3.12;;;2.40;;
72205;SDS011;60111;48.286;7.812;2022-08-01T01:22:42;2.95;;;2.33;;
72205;SDS011;60111;48.286;7.812;2022-08-01T01:31:08;2.58;;;2.20;;
72205;SDS011;60111;48.286;7.812;2022-08-01T01:33:43;2.72;;;2.52;;
72205;SDS011;60111;48.286;7.812;2022-08-01T01:36:16;2.60;;;2.27;;
72205;SDS011;60111;48.286;7.812;2022-08-01T01:38:51;2.98;;;2.55;;
72205;SDS011;60111;48.286;7.812;2022-08-01T01:41:25;2.45;;;2.25;;
72205;SDS011;60111;48.286;7.812;2022-08-01T01:43:58;6.10;;;2.75;;
72205;SDS011;60111;48.286;7.812;2022-08-01T01:46:33;2.72;;;2.20;;
72205;SDS011;60111;48.286;7.812;2022-08-01T01:49:07;3.27;;;2.80;;
72205;SDS011;60111;48.286;7.812;2022-08-01T01:51:41;3.40;;;2.30;;
72205;SDS011;60111;48.286;7.812;2022-08-01T01:54:15;2.87;;;2.67;;
72205;SDS011;60111;48.286;7.812;2022-08-01T01:56:49;3.67;;;2.77;;
72205;SDS011;60111;48.286;7.812;2022-08-01T01:59:29;2.62;;;2.42;;
72205;SDS011;60111;48.286;7.812;2022-08-01T02:01:59;11.45;;;3.02;;
72205;SDS011;60111;48.286;7.812;2022-08-01T02:04:35;2.60;;;2.40;;
72205;SDS011;60111;48.286;7.812;2022-08-01T02:07:10;3.02;;;2.72;;
72205;SDS011;60111;48.286;7.812;2022-08-01T02:09:45;3.37;;;2.92;;
72205;SDS011;60111;48.286;7.812;2022-08-01T02:12:18;2.93;;;2.67;;
72205;SDS011;60111;48.286;7.812;2022-08-01T02:14:55;3.33;;;2.98;;
72205;SDS011;60111;48.286;7.812;2022-08-01T02:17:29;3.03;;;2.73;;
72205;SDS011;60111;48.286;7.812;2022-08-01T02:20:03;2.98;;;2.75;;
72205;SDS011;60111;48.286;7.812;2022-08-01T02:23:24;4.83;;;2.40;;
72205;SDS011;60111;48.286;7.812;2022-08-01T02:25:22;2.90;;;2.70;;
72205;SDS011;60111;48.286;7.812;2022-08-01T02:30:38;5.33;;;3.50;;
72205;SDS011;60111;48.286;7.812;2022-08-01T02:33:18;3.15;;;2.80;;
72205;SDS011;60111;48.286;7.812;2022-08-01T02:35:54;4.15;;;2.87;;
72205;SDS011;60111;48.286;7.812;2022-08-01T02:38:29;3.80;;;3.10;;
72205;SDS011;60111;48.286;7.812;2022-08-01T02:41:04;4.10;;;2.85;;
72205;SDS011;60111;48.286;7.812;2022-08-01T02:43:40;3.10;;;2.80;;
72205;SDS011;60111;48.286;7.812;2022-08-01T02:46:29;3.98;;;3.30;;
72205;SDS011;60111;48.286;7.812;2022-08-01T02:48:53;5.70;;;3.17;;
72205;SDS011;60111;48.286;7.812;2022-08-01T02:51:30;3.55;;;2.92;;
72205;SDS011;60111;48.286;7.812;2022-08-01T02:54:05;3.17;;;2.87;;
72205;SDS011;60111;48.286;7.812;2022-08-01T02:56:40;3.42;;;3.12;;
72205;SDS011;60111;48.286;7.812;2022-08-01T02:59:15;3.30;;;3.00;;
72205;SDS011;60111;48.286;7.812;2022-08-01T03:01:50;4.40;;;2.85;;
72205;SDS011;60111;48.286;7.812;2022-08-01T03:04:25;4.15;;;3.00;;
72205;SDS011;60111;48.286;7.812;2022-08-01T03:09:34;4.08;;;3.40;;
72205;SDS011;60111;48.286;7.812;2022-08-01T03:12:13;3.77;;;3.40;;
72205;SDS011;60111;48.286;7.812;2022-08-01T03:14:47;3.45;;;3.15;;
72205;SDS011;60111;48.286;7.812;2022-08-01T03:17:22;3.95;;;3.25;;
72205;SDS011;60111;48.286;7.812;2022-08-01T03:19:57;3.10;;;2.80;;
72205;SDS011;60111;48.286;7.812;2022-08-01T03:22:33;3.40;;;3.10;;
72205;SDS011;60111;48.286;7.812;2022-08-01T03:25:06;7.50;;;3.17;;
72205;SDS011;60111;48.286;7.812;2022-08-01T03:27:41;6.03;;;3.58;;
72205;SDS011;60111;48.286;7.812;2022-08-01T03:30:16;4.17;;;3.10;;
72205;SDS011;60111;48.286;7.812;2022-08-01T03:32:49;7.33;;;3.30;;
72205;SDS011;60111;48.286;7.812;2022-08-01T03:35:23;3.70;;;3.33;;
72205;SDS011;60111;48.286;7.812;2022-08-01T03:37:58;3.45;;;3.15;;
72205;SDS011;60111;48.286;7.812;2022-08-01T03:40:37;3.75;;;3.45;;
72205;SDS011;60111;48.286;7.812;2022-08-01T03:43:26;4.60;;;3.47;;
72205;SDS011;60111;48.286;7.812;2022-08-01T03:46:07;4.87;;;3.52;;
72205;SDS011;60111;48.286;7.812;2022-08-01T03:48:43;5.60;;;3.67;;
72205;SDS011;60111;48.286;7.812;2022-08-01T03:51:17;4.75;;;3.35;;
72205;SDS011;60111;48.286;7.812;2022-08-01T03:53:50;5.05;;;3.42;;
72205;SDS011;60111;48.286;7.812;2022-08-01T03:56:25;4.15;;;3.60;;
72205;SDS011;60111;48.286;7.812;2022-08-01T03:59:02;3.92;;;3.52;;
72205;SDS011;60111;48.286;7.812;2022-08-01T04:01:35;4.13;;;3.50;;
72205;SDS011;60111;48.286;7.812;2022-08-01T04:04:10;6.22;;;3.47;;
72205;SDS011;60111;48.286;7.812;2022-08-01T04:06:43;5.35;;;3.52;;
72205;SDS011;60111;48.286;7.812;2022-08-01T04:09:16;6.47;;;3.80;;
72205;SDS011;60111;48.286;7.812;2022-08-01T04:11:49;9.60;;;3.60;;
72205;SDS011;60111;48.286;7.812;2022-08-01T04:14:22;3.67;;;3.37;;
72205;SDS011;60111;48.286;7.812;2022-08-01T04:16:54;4.12;;;3.30;;
72205;SDS011;60111;48.286;7.812;2022-08-01T04:19:27;3.80;;;3.50;;
72205;SDS011;60111;48.286;7.812;2022-08-01T04:22:00;3.50;;;3.20;;
72205;SDS011;60111;48.286;7.812;2022-08-01T04:24:33;4.60;;;3.60;;
72205;SDS011;60111;48.286;7.812;2022-08-01T04:29:41;7.08;;;3.62;;
72205;SDS011;60111;48.286;7.812;2022-08-01T04:32:15;4.50;;;3.40;;
72205;SDS011;60111;48.286;7.812;2022-08-01T04:34:50;6.58;;;4.10;;
72205;SDS011;60111;48.286;7.812;2022-08-01T04:37:26;6.45;;;3.85;;
72205;SDS011;60111;48.286;7.812;2022-08-01T04:40:00;5.08;;;4.00;;
72205;SDS011;60111;48.286;7.812;2022-08-01T04:42:35;7.92;;;4.20;;
72205;SDS011;60111;48.286;7.812;2022-08-01T04:45:08;6.05;;;3.85;;
72205;SDS011;60111;48.286;7.812;2022-08-01T04:50:15;5.37;;;3.50;;
72205;SDS011;60111;48.286;7.812;2022-08-01T04:52:48;6.70;;;3.97;;
72205;SDS011;60111;48.286;7.812;2022-08-01T04:55:22;10.17;;;3.80;;
72205;SDS011;60111;48.286;7.812;2022-08-01T04:57:55;6.42;;;3.55;;
72205;SDS011;60111;48.286;7.812;2022-08-01T05:00:27;6.03;;;4.00;;
72205;SDS011;60111;48.286;7.812;2022-08-01T05:03:00;6.33;;;3.70;;
72205;SDS011;60111;48.286;7.812;2022-08-01T05:05:33;3.80;;;3.50;;
72205;SDS011;60111;48.286;7.812;2022-08-01T05:08:06;7.15;;;3.85;;
72205;SDS011;60111;48.286;7.812;2022-08-01T05:10:38;6.90;;;3.80;;
72205;SDS011;60111;48.286;7.812;2022-08-01T05:13:11;5.40;;;4.20;;
72205;SDS011;60111;48.286;7.812;2022-08-01T05:15:44;7.05;;;3.85;;
72205;SDS011;60111;48.286;7.812;2022-08-01T05:18:16;7.40;;;3.90;;
72205;SDS011;60111;48.286;7.812;2022-08-01T05:20:49;7.93;;;4.03;;
72205;SDS011;60111;48.286;7.812;2022-08-01T05:23:22;8.30;;;4.20;;
72205;SDS011;60111;48.286;7.812;2022-08-01T05:25:55;7.42;;;3.92;;
72205;SDS011;60111;48.286;7.812;2022-08-01T05:28:28;4.90;;;3.70;;
72205;SDS011;60111;48.286;7.812;2022-08-01T05:31:01;6.30;;;4.40;;
72205;SDS011;60111;48.286;7.812;2022-08-01T05:33:34;4.58;;;3.55;;
72205;SDS011;60111;48.286;7.812;2022-08-01T05:36:07;4.25;;;3.80;;
72205;SDS011;60111;48.286;7.812;2022-08-01T05:38:40;4.30;;;3.45;;
72205;SDS011;60111;48.286;7.812;2022-08-01T05:41:13;4.50;;;3.58;;
72205;SDS011;60111;48.286;7.812;2022-08-01T05:43:45;5.67;;;3.30;;
72205;SDS011;60111;48.286;7.812;2022-08-01T05:46:18;12.33;;;4.27;;
72205;SDS011;60111;48.286;7.812;2022-08-01T05:48:51;8.23;;;3.95;;
72205;SDS011;60111;48.286;7.812;2022-08-01T05:51:23;6.67;;;3.98;;
72205;SDS011;60111;48.286;7.812;2022-08-01T05:53:57;5.20;;;3.80;;
72205;SDS011;60111;48.286;7.812;2022-08-01T05:56:30;6.15;;;4.03;;
72205;SDS011;60111;48.286;7.812;2022-08-01T05:59:03;10.32;;;3.72;;
72205;SDS011;60111;48.286;7.812;2022-08-01T06:01:35;5.62;;;3.62;;
72205;SDS011;60111;48.286;7.812;2022-08-01T06:04:08;8.35;;;4.25;;
72205;SDS011;60111;48.286;7.812;2022-08-01T06:06:41;7.45;;;3.42;;
72205;SDS011;60111;48.286;7.812;2022-08-01T06:09:13;5.87;;;3.70;;
72205;SDS011;60111;48.286;7.812;2022-08-01T06:11:46;10.05;;;3.90;;
72205;SDS011;60111;48.286;7.812;2022-08-01T06:14:19;4.92;;;3.50;;
72205;SDS011;60111;48.286;7.812;2022-08-01T06:16:51;10.73;;;4.20;;
72205;SDS011;60111;48.286;7.812;2022-08-01T06:19:24;7.58;;;4.35;;
72205;SDS011;60111;48.286;7.812;2022-08-01T06:21:57;10.70;;;3.83;;
72205;SDS011;60111;48.286;7.812;2022-08-01T06:24:29;6.40;;;3.80;;
72205;SDS011;60111;48.286;7.812;2022-08-01T06:27:02;9.78;;;3.83;;
72205;SDS011;60111;48.286;7.812;2022-08-01T06:29:35;4.28;;;3.60;;
72205;SDS011;60111;48.286;7.812;2022-08-01T06:32:08;6.20;;;3.95;;
72205;SDS011;60111;48.286;7.812;2022-08-01T06:34:41;7.25;;;3.75;;
72205;SDS011;60111;48.286;7.812;2022-08-01T06:37:13;10.58;;;4.35;;
72205;SDS011;60111;48.286;7.812;2022-08-01T06:39:46;13.25;;;4.50;;
72205;SDS011;60111;48.286;7.812;2022-08-01T06:42:20;9.67;;;4.03;;
72205;SDS011;60111;48.286;7.812;2022-08-01T06:44:52;7.60;;;4.30;;
72205;SDS011;60111;48.286;7.812;2022-08-01T06:47:25;7.12;;;3.75;;
72205;SDS011;60111;48.286;7.812;2022-08-01T06:49:58;6.40;;;3.30;;
72205;SDS011;60111;48.286;7.812;2022-08-01T06:52:30;5.97;;;3.50;;
72205;SDS011;60111;48.286;7.812;2022-08-01T06:55:04;9.60;;;3.97;;
72205;SDS011;60111;48.286;7.812;2022-08-01T06:57:44;9.80;;;3.47;;
72205;SDS011;60111;48.286;7.812;2022-08-01T07:00:22;6.47;;;4.07;;
72205;SDS011;60111;48.286;7.812;2022-08-01T07:02:56;8.73;;;3.47;;
72205;SDS011;60111;48.286;7.812;2022-08-01T07:05:30;7.15;;;3.20;;
72205;SDS011;60111;48.286;7.812;2022-08-01T07:08:03;7.15;;;3.60;;
72205;SDS011;60111;48.286;7.812;2022-08-01T07:10:36;7.65;;;3.15;;
72205;SDS011;60111;48.286;7.812;2022-08-01T07:13:08;5.73;;;3.00;;
72205;SDS011;60111;48.286;7.812;2022-08-01T07:15:42;7.13;;;3.27;;
72205;SDS011;60111;48.286;7.812;2022-08-01T07:18:15;7.47;;;2.90;;
72205;SDS011;60111;48.286;7.812;2022-08-01T07:20:48;10.32;;;2.90;;
72205;SDS011;60111;48.286;7.812;2022-08-01T07:23:21;9.63;;;3.17;;
72205;SDS011;60111;48.286;7.812;2022-08-01T07:25:54;3.17;;;2.52;;
72205;SDS011;60111;48.286;7.812;2022-08-01T07:28:27;2.87;;;2.58;;
72205;SDS011;60111;48.286;7.812;2022-08-01T07:31:00;5.10;;;2.55;;
72205;SDS011;60111;48.286;7.812;2022-08-01T07:33:33;5.67;;;2.30;;
72205;SDS011;60111;48.286;7.812;2022-08-01T07:36:05;2.92;;;2.25;;
72205;SDS011;60111;48.286;7.812;2022-08-01T07:38:38;4.90;;;2.30;;
72205;SDS011;60111;48.286;7.812;2022-08-01T07:41:11;2.52;;;2.30;;
72205;SDS011;60111;48.286;7.812;2022-08-01T07:43:44;2.77;;;2.15;;
72205;SDS011;60111;48.286;7.812;2022-08-01T07:46:18;6.50;;;2.12;;
72205;SDS011;60111;48.286;7.812;2022-08-01T07:48:51;3.17;;;1.82;;
72205;SDS011;60111;48.286;7.812;2022-08-01T07:51:24;1.95;;;1.80;;
72205;SDS011;60111;48.286;7.812;2022-08-01T07:53:57;7.50;;;2.23;;
72205;SDS011;60111;48.286;7.812;2022-08-01T07:56:29;4.85;;;2.00;;
72205;SDS011;60111;48.286;7.812;2022-08-01T07:59:02;4.10;;;2.27;;
72205;SDS011;60111;48.286;7.812;2022-08-01T08:01:34;5.75;;;2.10;;
72205;SDS011;60111;48.286;7.812;2022-08-01T08:04:07;5.37;;;2.00;;
72205;SDS011;60111;48.286;7.812;2022-08-01T08:06:40;3.60;;;1.90;;
72205;SDS011;60111;48.286;7.812;2022-08-01T08:09:14;4.40;;;2.27;;
72205;SDS011;60111;48.286;7.812;2022-08-01T08:11:47;4.30;;;2.30;;
72205;SDS011;60111;48.286;7.812;2022-08-01T08:14:20;4.70;;;2.35;;
72205;SDS011;60111;48.286;7.812;2022-08-01T08:16:53;3.35;;;2.77;;
72205;SDS011;60111;48.286;7.812;2022-08-01T08:19:26;4.75;;;2.45;;
72205;SDS011;60111;48.286;7.812;2022-08-01T08:21:59;4.83;;;2.47;;
72205;SDS011;60111;48.286;7.812;2022-08-01T08:24:32;2.70;;;2.50;;
72205;SDS011;60111;48.286;7.812;2022-08-01T08:27:04;4.35;;;2.90;;
72205;SDS011;60111;48.286;7.812;2022-08-01T08:29:38;5.67;;;3.05;;
72205;SDS011;60111;48.286;7.812;2022-08-01T08:32:11;5.20;;;2.67;;
72205;SDS011;60111;48.286;7.812;2022-08-01T08:34:43;4.97;;;2.20;;
72205;SDS011;60111;48.286;7.812;2022-08-01T08:37:16;3.52;;;2.50;;
72205;SDS011;60111;48.286;7.812;2022-08-01T08:39:49;2.50;;;2.30;;
72205;SDS011;60111;48.286;7.812;2022-08-01T08:42:22;3.17;;;2.85;;
72205;SDS011;60111;48.286;7.812;2022-08-01T08:44:55;5.47;;;2.60;;
72205;SDS011;60111;48.286;7.812;2022-08-01T08:47:27;3.30;;;2.52;;
72205;SDS011;60111;48.286;7.812;2022-08-01T08:50:03;3.53;;;2.40;;
72205;SDS011;60111;48.286;7.812;2022-08-01T08:52:37;6.20;;;2.35;;
72205;SDS011;60111;48.286;7.812;2022-08-01T08:55:11;2.52;;;2.33;;
72205;SDS011;60111;48.286;7.812;2022-08-01T08:57:46;4.80;;;2.67;;
72205;SDS011;60111;48.286;7.812;2022-08-01T09:00:19;8.27;;;2.67;;
72205;SDS011;60111;48.286;7.812;2022-08-01T09:02:52;7.62;;;2.47;;
72205;SDS011;60111;48.286;7.812;2022-08-01T09:05:26;3.77;;;2.95;;
72205;SDS011;60111;48.286;7.812;2022-08-01T09:07:59;2.87;;;2.52;;
72205;SDS011;60111;48.286;7.812;2022-08-01T09:10:32;4.42;;;2.95;;
72205;SDS011;60111;48.286;7.812;2022-08-01T09:13:11;5.35;;;2.58;;
72205;SDS011;60111;48.286;7.812;2022-08-01T09:15:46;3.85;;;2.90;;
72205;SDS011;60111;48.286;7.812;2022-08-01T09:18:27;3.27;;;2.97;;
72205;SDS011;60111;48.286;7.812;2022-08-01T09:21:15;4.22;;;2.65;;
72205;SDS011;60111;48.286;7.812;2022-08-01T09:23:54;4.05;;;3.08;;
72205;SDS011;60111;48.286;7.812;2022-08-01T09:26:29;5.30;;;2.58;;
72205;SDS011;60111;48.286;7.812;2022-08-01T09:29:05;4.67;;;2.80;;
72205;SDS011;60111;48.286;7.812;2022-08-01T09:31:42;3.50;;;2.77;;
72205;SDS011;60111;48.286;7.812;2022-08-01T09:34:16;3.50;;;2.92;;
72205;SDS011;60111;48.286;7.812;2022-08-01T09:36:57;5.20;;;2.67;;
72205;SDS011;60111;48.286;7.812;2022-08-01T09:39:33;3.72;;;2.77;;
72205;SDS011;60111;48.286;7.812;2022-08-01T09:44:55;6.00;;;3.10;;
72205;SDS011;60111;48.286;7.812;2022-08-01T09:47:38;4.23;;;3.10;;
72205;SDS011;60111;48.286;7.812;2022-08-01T09:50:11;3.17;;;2.67;;
72205;SDS011;60111;48.286;7.812;2022-08-01T09:52:48;6.33;;;3.00;;
72205;SDS011;60111;48.286;7.812;2022-08-01T09:55:21;5.08;;;2.65;;
72205;SDS011;60111;48.286;7.812;2022-08-01T09:57:57;3.22;;;2.83;;
72205;SDS011;60111;48.286;7.812;2022-08-01T10:00:31;5.17;;;3.03;;
72205;SDS011;60111;48.286;7.812;2022-08-01T10:03:18;3.33;;;2.87;;
72205;SDS011;60111;48.286;7.812;2022-08-01T10:05:52;2.92;;;2.72;;
72205;SDS011;60111;48.286;7.812;2022-08-01T10:08:25;6.53;;;3.00;;
72205;SDS011;60111;48.286;7.812;2022-08-01T10:11:09;4.67;;;3.40;;
72205;SDS011;60111;48.286;7.812;2022-08-01T10:13:42;2.90;;;2.60;;
72205;SDS011;60111;48.286;7.812;2022-08-01T10:16:15;4.03;;;2.80;;
72205;SDS011;60111;48.286;7.812;2022-08-01T10:18:48;3.90;;;3.02;;
72205;SDS011;60111;48.286;7.812;2022-08-01T10:21:21;4.03;;;2.70;;
72205;SDS011;60111;48.286;7.812;2022-08-01T10:23:56;4.33;;;2.75;;
72205;SDS011;60111;48.286;7.812;2022-08-01T10:26:32;5.43;;;3.37;;
72205;SDS011;60111;48.286;7.812;2022-08-01T10:29:05;6.62;;;3.00;;
72205;SDS011;60111;48.286;7.812;2022-08-01T10:31:39;6.67;;;3.10;;
72205;SDS011;60111;48.286;7.812;2022-08-01T10:34:13;3.87;;;3.00;;
72205;SDS011;60111;48.286;7.812;2022-08-01T10:36:49;3.37;;;3.00;;
72205;SDS011;60111;48.286;7.812;2022-08-01T10:39:21;4.55;;;2.90;;
72205;SDS011;60111;48.286;7.812;2022-08-01T10:41:57;4.50;;;2.80;;
72205;SDS011;60111;48.286;7.812;2022-08-01T10:44:30;3.95;;;2.92;;
72205;SDS011;60111;48.286;7.812;2022-08-01T10:47:07;7.63;;;3.00;;
72205;SDS011;60111;48.286;7.812;2022-08-01T10:49:49;2.80;;;2.60;;
72205;SDS011;60111;48.286;7.812;2022-08-01T10:52:22;3.27;;;2.75;;
72205;SDS011;60111;48.286;7.812;2022-08-01T10:55:05;5.30;;;2.90;;
72205;SDS011;60111;48.286;7.812;2022-08-01T10:57:42;3.35;;;2.80;;
72205;SDS011;60111;48.286;7.812;2022-08-01T11:00:19;2.92;;;2.60;;
72205;SDS011;60111;48.286;7.812;2022-08-01T11:03:00;3.30;;;2.90;;
72205;SDS011;60111;48.286;7.812;2022-08-01T11:05:34;2.67;;;2.47;;
72205;SDS011;60111;48.286;7.812;2022-08-01T11:08:12;2.60;;;2.40;;
72205;SDS011;60111;48.286;7.812;2022-08-01T11:10:43;2.90;;;2.60;;
72205;SDS011;60111;48.286;7.812;2022-08-01T11:13:15;2.83;;;2.50;;
72205;SDS011;60111;48.286;7.812;2022-08-01T11:15:51;2.63;;;2.43;;
72205;SDS011;60111;48.286;7.812;2022-08-01T11:21:04;3.30;;;3.00;;
72205;SDS011;60111;48.286;7.812;2022-08-01T11:23:46;2.85;;;2.58;;
72205;SDS011;60111;48.286;7.812;2022-08-01T11:26:15;4.53;;;2.53;;
72205;SDS011;60111;48.286;7.812;2022-08-01T11:29:22;5.70;;;2.87;;
72205;SDS011;60111;48.286;7.812;2022-08-01T11:31:46;2.83;;;2.53;;
72205;SDS011;60111;48.286;7.812;2022-08-01T11:34:18;4.17;;;2.77;;
72205;SDS011;60111;48.286;7.812;2022-08-01T11:36:59;5.30;;;2.50;;
72205;SDS011;60111;48.286;7.812;2022-08-01T11:39:27;3.45;;;2.87;;
72205;SDS011;60111;48.286;7.812;2022-08-01T11:42:18;3.40;;;2.93;;
72205;SDS011;60111;48.286;7.812;2022-08-01T11:44:47;3.20;;;2.90;;
72205;SDS011;60111;48.286;7.812;2022-08-01T11:48:08;4.62;;;2.95;;
72205;SDS011;60111;48.286;7.812;2022-08-01T11:50:34;3.50;;;2.77;;
72205;SDS011;60111;48.286;7.812;2022-08-01T11:53:07;3.23;;;2.80;;
72205;SDS011;60111;48.286;7.812;2022-08-01T11:55:48;4.10;;;2.77;;
72205;SDS011;60111;48.286;7.812;2022-08-01T11:58:23;2.77;;;2.57;;
72205;SDS011;60111;48.286;7.812;2022-08-01T12:00:58;2.95;;;2.75;;
72205;SDS011;60111;48.286;7.812;2022-08-01T12:03:31;5.25;;;2.87;;
72205;SDS011;60111;48.286;7.812;2022-08-01T12:06:06;5.03;;;2.90;;
72205;SDS011;60111;48.286;7.812;2022-08-01T12:08:38;3.53;;;2.93;;
72205;SDS011;60111;48.286;7.812;2022-08-01T12:11:11;4.85;;;2.87;;
72205;SDS011;60111;48.286;7.812;2022-08-01T12:13:44;4.58;;;2.75;;
72205;SDS011;60111;48.286;7.812;2022-08-01T12:16:18;3.23;;;2.90;;
72205;SDS011;60111;48.286;7.812;2022-08-01T12:18:51;3.08;;;2.67;;
72205;SDS011;60111;48.286;7.812;2022-08-01T12:21:23;3.23;;;2.77;;
72205;SDS011;60111;48.286;7.812;2022-08-01T12:23:59;3.95;;;2.40;;
72205;SDS011;60111;48.286;7.812;2022-08-01T12:26:45;4.62;;;3.12;;
72205;SDS011;60111;48.286;7.812;2022-08-01T12:29:30;6.07;;;2.67;;
72205;SDS011;60111;48.286;7.812;2022-08-01T12:32:19;4.37;;;3.17;;
72205;SDS011;60111;48.286;7.812;2022-08-01T12:34:43;3.20;;;2.90;;
72205;SDS011;60111;48.286;7.812;2022-08-01T12:37:15;3.50;;;2.67;;
72205;SDS011;60111;48.286;7.812;2022-08-01T12:39:49;4.83;;;2.52;;
72205;SDS011;60111;48.286;7.812;2022-08-01T12:42:22;4.83;;;2.77;;
72205;SDS011;60111;48.286;7.812;2022-08-01T12:44:55;3.70;;;2.90;;
72205;SDS011;60111;48.286;7.812;2022-08-01T12:47:28;4.35;;;3.00;;
72205;SDS011;60111;48.286;7.812;2022-08-01T12:50:01;3.12;;;2.90;;
72205;SDS011;60111;48.286;7.812;2022-08-01T12:52:34;5.50;;;2.70;;
72205;SDS011;60111;48.286;7.812;2022-08-01T12:57:42;3.08;;;2.77;;
72205;SDS011;60111;48.286;7.812;2022-08-01T13:00:25;5.13;;;2.90;;
72205;SDS011;60111;48.286;7.812;2022-08-01T13:03:02;3.30;;;3.00;;
72205;SDS011;60111;48.286;7.812;2022-08-01T13:05:43;4.03;;;2.90;;
72205;SDS011;60111;48.286;7.812;2022-08-01T13:08:25;5.20;;;3.33;;
72205;SDS011;60111;48.286;7.812;2022-08-01T13:11:05;5.30;;;3.10;;
72205;SDS011;60111;48.286;7.812;2022-08-01T13:13:50;3.03;;;2.80;;
72205;SDS011;60111;48.286;7.812;2022-08-01T13:16:24;3.80;;;2.93;;
72205;SDS011;60111;48.286;7.812;2022-08-01T13:18:58;4.95;;;2.55;;
72205;SDS011;60111;48.286;7.812;2022-08-01T13:21:31;2.97;;;2.70;;
72205;SDS011;60111;48.286;7.812;2022-08-01T13:26:43;3.40;;;3.10;;
72205;SDS011;60111;48.286;7.812;2022-08-01T13:29:30;6.50;;;3.30;;
72205;SDS011;60111;48.286;7.812;2022-08-01T13:32:12;4.80;;;2.70;;
72205;SDS011;60111;48.286;7.812;2022-08-01T13:34:46;3.42;;;2.90;;
72205;SDS011;60111;48.286;7.812;2022-08-01T13:37:19;3.40;;;2.70;;
72205;SDS011;60111;48.286;7.812;2022-08-01T13:39:52;5.42;;;3.22;;
72205;SDS011;60111;48.286;7.812;2022-08-01T13:42:25;3.67;;;2.73;;
72205;SDS011;60111;48.286;7.812;2022-08-01T13:44:59;3.42;;;2.52;;
72205;SDS011;60111;48.286;7.812;2022-08-01T13:47:31;3.60;;;2.80;;
72205;SDS011;60111;48.286;7.812;2022-08-01T13:50:04;3.87;;;2.85;;
72205;SDS011;60111;48.286;7.812;2022-08-01T13:52:37;3.13;;;2.87;;
72205;SDS011;60111;48.286;7.812;2022-08-01T13:55:10;4.67;;;3.00;;
72205;SDS011;60111;48.286;7.812;2022-08-01T13:57:42;6.33;;;3.05;;
72205;SDS011;60111;48.286;7.812;2022-08-01T14:00:15;3.40;;;3.10;;
72205;SDS011;60111;48.286;7.812;2022-08-01T14:02:48;4.33;;;3.03;;
72205;SDS011;60111;48.286;7.812;2022-08-01T14:05:20;3.67;;;3.03;;
72205;SDS011;60111;48.286;7.812;2022-08-01T14:07:53;3.58;;;3.00;;
72205;SDS011;60111;48.286;7.812;2022-08-01T14:10:26;6.15;;;3.17;;
72205;SDS011;60111;48.286;7.812;2022-08-01T14:12:58;3.20;;;2.90;;
72205;SDS011;60111;48.286;7.812;2022-08-01T14:15:32;5.28;;;2.80;;
72205;SDS011;60111;48.286;7.812;2022-08-01T14:20:38;4.30;;;2.77;;
72205;SDS011;60111;48.286;7.812;2022-08-01T14:23:11;4.77;;;2.73;;
72205;SDS011;60111;48.286;7.812;2022-08-01T14:25:44;4.08;;;2.72;;
72205;SDS011;60111;48.286;7.812;2022-08-01T14:28:17;3.57;;;2.97;;
72205;SDS011;60111;48.286;7.812;2022-08-01T14:30:49;3.00;;;2.65;;
72205;SDS011;60111;48.286;7.812;2022-08-01T14:33:22;3.60;;;2.98;;
72205;SDS011;60111;48.286;7.812;2022-08-01T14:35:55;4.63;;;2.70;;
72205;SDS011;60111;48.286;7.812;2022-08-01T14:38:28;3.15;;;2.58;;
72205;SDS011;60111;48.286;7.812;2022-08-01T14:41:00;5.58;;;2.60;;
72205;SDS011;60111;48.286;7.812;2022-08-01T14:46:06;2.62;;;2.40;;
72205;SDS011;60111;48.286;7.812;2022-08-01T14:48:40;4.05;;;2.92;;
72205;SDS011;60111;48.286;7.812;2022-08-01T14:51:13;4.40;;;2.63;;
72205;SDS011;60111;48.286;7.812;2022-08-01T14:53:45;4.97;;;2.50;;
72205;SDS011;60111;48.286;7.812;2022-08-01T14:56:18;3.90;;;2.67;;
72205;SDS011;60111;48.286;7.812;2022-08-01T14:58:51;7.00;;;2.70;;
72205;SDS011;60111;48.286;7.812;2022-08-01T15:01:24;2.85;;;2.22;;
72205;SDS011;60111;48.286;7.812;2022-08-01T15:03:57;4.90;;;2.47;;
72205;SDS011;60111;48.286;7.812;2022-08-01T15:06:30;3.02;;;2.70;;
72205;SDS011;60111;48.286;7.812;2022-08-01T15:09:02;2.83;;;2.55;;
72205;SDS011;60111;48.286;7.812;2022-08-01T15:11:35;12.07;;;2.70;;
72205;SDS011;60111;48.286;7.812;2022-08-01T15:14:08;3.27;;;2.50;;
72205;SDS011;60111;48.286;7.812;2022-08-01T15:16:58;2.97;;;2.20;;
72205;SDS011;60111;48.286;7.812;2022-08-01T15:19:31;2.97;;;2.20;;
72205;SDS011;60111;48.286;7.812;2022-08-01T15:22:03;8.00;;;2.80;;
72205;SDS011;60111;48.286;7.812;2022-08-01T15:24:36;2.85;;;2.37;;
72205;SDS011;60111;48.286;7.812;2022-08-01T15:27:09;2.98;;;2.02;;
72205;SDS011;60111;48.286;7.812;2022-08-01T15:29:42;5.55;;;2.17;;
72205;SDS011;60111;48.286;7.812;2022-08-01T15:32:16;5.60;;;2.17;;
72205;SDS011;60111;48.286;7.812;2022-08-01T15:34:49;5.77;;;2.13;;
72205;SDS011;60111;48.286;7.812;2022-08-01T15:37:21;5.50;;;2.10;;
72205;SDS011;60111;48.286;7.812;2022-08-01T15:39:54;4.53;;;1.90;;
72205;SDS011;60111;48.286;7.812;2022-08-01T15:42:26;4.37;;;1.60;;
72205;SDS011;60111;48.286;7.812;2022-08-01T15:44:59;2.92;;;1.90;;
72205;SDS011;60111;48.286;7.812;2022-08-01T15:47:32;2.35;;;2.00;;
72205;SDS011;60111;48.286;7.812;2022-08-01T15:50:06;2.53;;;1.97;;
72205;SDS011;60111;48.286;7.812;2022-08-01T15:52:39;1.77;;;1.55;;
72205;SDS011;60111;48.286;7.812;2022-08-01T15:55:12;2.97;;;1.70;;
72205;SDS011;60111;48.286;7.812;2022-08-01T15:57:45;2.65;;;1.70;;
72205;SDS011;60111;48.286;7.812;2022-08-01T16:00:17;3.53;;;2.00;;
72205;SDS011;60111;48.286;7.812;2022-08-01T16:02:50;5.10;;;1.67;;
72205;SDS011;60111;48.286;7.812;2022-08-01T16:05:23;3.30;;;1.90;;
72205;SDS011;60111;48.286;7.812;2022-08-01T16:07:55;2.05;;;1.77;;
72205;SDS011;60111;48.286;7.812;2022-08-01T16:10:28;2.00;;;1.67;;